Aérodrome :
LOGIN :

S'inscrire | Disclaimer

   EN    FR    IT 

 










Légende :    VFR   VFR Marginal   IFR   IFR Intensif   IFR Très Intensif
Visi : 
Plafond : 
>= 8 km
>= 3000ft
5 à 8 km
1000 à 3000 ft
1500m à 5 km
500 à 1000 ft
800 à 1500m
200 à 500 ft
< 800m
< 200 ft
Symboles :   Orages  Brouillard  Fortes neiges  Fortes précipitations  Vent > 20 kt
SIGMETs :   Divers  Orages  Givrage  Turbulence  Onde Orograph.  Cendres Volcan.






- Altitude de l'aérodrome : 779 ft
- Code IATA : CMF


LFLB - Chambery / Aix-Les-Bains

DERNIER METAR :
  • 291230Z AUTO 35004KT 320V020 8000 OVC031 08/05 Q1013 NOSIG

METARs EXPIRÉS :
  • 291200Z AUTO 36006KT 9999 OVC031 08/05 Q1014 NOSIG
  • 291130Z AUTO 35006KT 8000 FEW017 OVC032 08/05 Q1014 NOSIG
  • 291100Z AUTO 36006KT 7000 SCT014 SCT026 OVC033 07/05 Q1015 NOSIG
  • 291030Z AUTO 36007KT 7000 OVC012 07/05 Q1015 BECMG NSC
  • 291000Z AUTO 36008KT 7000 OVC011 07/05 Q1016 BECMG BKN030
  • 290930Z AUTO 36007KT 7000 OVC011 07/05 Q1016 BECMG BKN030
  • 290900Z AUTO 01006KT 6000 BKN010 OVC015 07/05 Q1016 NOSIG
  • 290830Z AUTO 36006KT 6000 BKN010 OVC015 07/05 Q1016 TEMPO 4000 BR BECMG SCT030
  • 290800Z AUTO 01005KT 7000 BKN010 OVC015 07/05 Q1016 TEMPO 4000 BR

TAF TAF LFLB
Valide du 29 à 09h jusqu'au 01 à 09h UTC


290800Z 2909/0109 36006KT 7000 BKN030
TEMPO 2909/2911 OVC011
BECMG 2912/2915 VRB03KT CAVOK
BECMG 2920/2923 OVC070
BECMG 0100/0103 BKN040
TEMPO 0103/0109 -RA BKN012 OVC030



MET'MAP, la Météo Aéronautique d'un coup d'oeil ! - Copyright ORBIFLY Décembre 2007 - Disclaimer

ORBIFLY MET'MAP TEAM :

Programmation & Développement : Alexandra Zaïnal
Sur une idée originale de : Baudouin d'Aumeries
Soutien technique & logistique : Manuel Goepfert
Assistance : Marc-Olivier Méhu




SOURCES & CREDITS :

   NOAA